Latest Weather Observations for Portland Airport

IDV60801

Issued at 2:02 pm EDT Tuesday 28 February 2017 (issued every 30 minutes, with the page automatically refreshed every 10 minutes)

About weather observations | Map of weather stations | Latest weather observations for VIC | Other Formats
Station Details ID: 090171 Name: CASHMORE AIRPORT Lat: -38.31 Lon: 141.47 Height: 80.9 m
Data from the previous 72 hours. | See also: Recent months at Portland Airport
Date/Time
EDT
Temp
°C
App
Temp
°C
Dew
Point
°C
Rel
Hum
%
Delta-T
°C
Wind Press
QNH
hPa
Press
MSL
hPa
Rain since
9am
mm
Dir  Spd
km/h
Gust
km/h
Spd
kts
Gust
kts
28/02:00pm 32.4 30.7 9.9 25 12.9 NNE 9 15 5 8 1019.6 1019.4 0.0
28/01:30pm 32.8 31.4 8.9 23 13.5 W 6 15 3 8 1019.7 1019.5 0.0
28/01:00pm 32.4 30.2 9.2 24 13.1 N 11 20 6 11 1020.0 1019.8 0.0
28/12:30pm 31.7 28.5 9.8 26 12.5 NW 17 22 9 12 1020.2 1020.1 0.0
28/12:00pm 31.3 27.9 10.6 28 11.9 N 19 28 10 15 1020.3 1020.2 0.0
28/11:30am 30.4 27.2 11.4 31 11.0 N 19 28 10 15 1020.5 1020.4 0.0
28/11:00am 29.3 27.3 12.7 36 9.8 N 15 20 8 11 1020.5 1020.4 0.0
28/10:30am 27.8 24.6 11.4 36 9.4 N 19 28 10 15 1020.5 1020.4 0.0
28/10:00am 26.3 24.8 13.1 44 7.7 N 13 22 7 12 1020.4 1020.3 0.0
28/09:30am 24.1 23.3 13.0 50 6.4 N 9 13 5 7 1020.5 1020.4 0.0
28/09:00am 21.9 20.5 12.2 54 5.5 N 11 17 6 9 1020.3 1020.2 0.0
28/08:30am 20.3 19.6 12.0 59 4.6 N 7 11 4 6 1020.1 1019.9 0.0
28/08:00am 18.2 17.0 11.5 65 3.7 N 9 13 5 7 1019.9 1019.7 0.0
28/07:30am 17.1 15.9 11.6 70 3.0 N 9 13 5 7 1019.6 1019.4 0.0
28/07:00am 16.3 15.3 11.0 71 2.8 N 7 9 4 5 1019.4 1019.2 0.0
28/06:30am 14.9 13.5 9.7 71 2.7 N 7 7 4 4 1019.2 1019.0 0.0
28/06:00am 16.7 15.3 11.0 69 3.1 N 9 11 5 6 1019.1 1018.9 0.0
28/05:30am 17.1 15.8 11.2 68 3.2 N 9 13 5 7 1018.9 1018.7 0.0
28/05:00am 17.4 15.4 11.4 68 3.3 N 13 17 7 9 1018.9 1018.7 0.0
28/04:30am 17.2 15.9 11.2 68 3.3 N 9 13 5 7 1018.9 1018.7 0.0
28/04:00am 18.0 16.7 11.1 64 3.7 NNE 9 13 5 7 1019.1 1018.9 0.0
28/03:30am 18.9 17.7 11.5 62 4.1 NE 9 13 5 7 1019.2 1019.0 0.0
28/03:00am 18.3 17.3 11.1 63 3.9 NE 7 11 4 6 1019.4 1019.2 0.0
28/02:30am 19.9 18.9 12.2 61 4.3 ENE 9 13 5 7 1019.4 1019.2 0.0
28/02:00am 20.3 18.8 12.0 59 4.6 ENE 11 15 6 8 1019.7 1019.5 0.0
28/01:30am 20.7 19.9 12.9 61 4.4 ENE 9 15 5 8 1019.9 1019.7 0.0
28/01:00am 19.0 17.8 12.7 67 3.5 NNE 11 13 6 7 1020.0 1019.8 0.0
28/12:30am 20.1 20.0 14.9 72 3.1 ENE 9 13 5 7 1020.0 1019.8 0.0
28/12:00am 16.7 16.7 13.6 82 1.7 ESE 6 7 3 4 1020.3 1020.2 0.0
 
Date/Time
EDT
Temp
°C
App
Temp
°C
Dew
Point
°C
Rel
Hum
%
Delta-T
°C
Wind Press
QNH
hPa
Press
MSL
hPa
Rain since
9am
mm
Dir  Spd
km/h
Gust
km/h
Spd
kts
Gust
kts
27/11:30pm 16.6 17.2 13.1 80 2.0 ESE 2 7 1 4 1020.4 1020.3 0.0
27/11:00pm 17.4 18.4 13.3 77 2.3 CALM 0 0 0 0 1020.5 1020.4 0.0
27/10:30pm 18.6 18.6 14.1 75 2.6 ESE 7 9 4 5 1020.6 1020.5 0.0
27/10:00pm 19.3 19.0 14.3 73 2.9 E 9 13 5 7 1020.4 1020.3 0.0
27/09:30pm 19.4 19.0 14.2 72 3.0 ENE 9 15 5 8 1020.2 1020.1 0.0
27/09:00pm 19.9 20.5 14.3 70 3.2 ESE 4 9 2 5 1020.1 1019.9 0.0
27/08:30pm 20.8 21.1 14.5 67 3.7 E 6 11 3 6 1019.9 1019.7 0.0
27/08:00pm 22.0 20.9 14.4 62 4.5 E 13 17 7 9 1019.7 1019.5 0.0
27/07:30pm 24.3 23.5 14.1 53 6.0 ENE 11 15 6 8 1019.6 1019.4 0.0
27/07:00pm 26.2 24.5 13.7 46 7.4 SE 15 20 8 11 1019.4 1019.2 0.0
27/06:30pm 26.7 25.4 13.8 45 7.7 ESE 13 20 7 11 1019.3 1019.1 0.0
27/06:00pm 26.7 25.4 13.8 45 7.6 ESE 13 19 7 10 1019.2 1019.0 0.0
27/05:30pm 28.1 27.3 15.1 45 7.9 ESE 13 19 7 10 1019.1 1018.9 0.0
27/05:00pm 30.1 28.6 13.0 35 10.2 SSE 13 17 7 9 1019.1 1018.9 0.0
27/04:30pm 30.3 28.6 13.6 36 10.0 S 15 19 8 10 1019.2 1019.0 0.0
27/04:00pm 30.7 29.2 13.0 33 10.5 S 13 20 7 11 1019.2 1019.0 0.0
27/03:30pm 30.5 28.8 12.4 33 10.7 SSE 13 17 7 9 1019.3 1019.1 0.0
27/03:00pm 30.7 29.3 13.5 35 10.3 S 13 20 7 11 1019.5 1019.3 0.0
27/02:30pm 29.9 29.0 13.6 36 9.8 S 11 17 6 9 1019.8 1019.6 0.0
27/02:00pm 29.7 29.2 15.8 43 8.6 SSW 13 19 7 10 1019.8 1019.6 0.0
27/01:30pm 31.4 29.1 11.7 29 11.5 NW 15 20 8 11 1019.8 1019.6 0.0
27/01:00pm 31.4 29.2 12.2 30 11.3 N 15 24 8 13 1020.0 1019.8 0.0
27/12:30pm 30.4 28.3 12.3 33 10.7 NNW 15 28 8 15 1020.4 1020.3 0.0
27/12:00pm 29.4 28.0 14.4 40 9.1 N 15 22 8 12 1020.6 1020.5 0.0
27/11:30am 28.2 26.9 14.8 44 8.1 N 15 22 8 12 1020.8 1020.7 0.0
27/11:00am 26.2 24.6 14.0 47 7.2 N 15 20 8 11 1021.0 1020.9 0.0
27/10:30am 24.1 23.5 15.6 59 5.1 NNE 13 19 7 10 1021.0 1020.9 0.0
27/10:00am 20.5 21.8 17.5 83 1.8 NE 7 11 4 6 1021.1 1021.0 0.0
27/09:30am 18.1 19.1 16.4 90 1.0 NE 6 7 3 4 1021.0 1020.9 0.0
27/09:00am 17.1 17.7 15.8 92 0.8 NE 7 9 4 5 1020.9 1020.8 0.0
27/08:30am 15.4 15.4 14.3 93 0.6 NNE 7 9 4 5 1020.7 1020.6 0.0
27/08:00am 13.1 13.7 12.0 93 0.6 CALM 0 2 0 1 1020.6 1020.5 0.0
27/07:55am 13.0 12.8 11.9 93 0.6 N 4 9 2 5 1020.6 1020.5 0.0
27/07:36am 12.8 12.0 11.7 93 0.6 N 7 9 4 5 1020.4 1020.3 0.0
27/07:30am 13.4 12.4 12.3 93 0.6 NNE 9 11 5 6 1020.4 1020.3 0.0
27/07:00am 13.3 11.9 12.2 93 0.6 NNE 11 13 6 7 1019.9 1019.7 0.0
27/06:30am 13.7 12.8 12.6 93 0.6 NE 9 11 5 6 1019.7 1019.5 0.0
27/06:00am 14.5 13.9 13.4 93 0.6 NE 9 13 5 7 1019.6 1019.4 0.0
27/05:30am 14.8 14.3 13.7 93 0.6 NE 9 13 5 7 1019.6 1019.4 0.0
27/05:04am 14.9 14.3 13.6 92 0.7 NE 9 11 5 6 1019.5 1019.3 0.0
27/05:00am 15.0 14.8 13.7 92 0.7 NE 7 9 4 5 1019.5 1019.3 0.0
27/04:30am 15.0 14.8 13.7 92 0.7 NE 7 9 4 5 1019.5 1019.3 0.0
27/04:24am 14.9 14.9 13.6 92 0.7 NE 6 7 3 4 1019.5 1019.3 0.0
27/04:00am 15.5 15.5 14.2 92 0.7 ENE 7 11 4 6 1019.5 1019.3 0.0
27/03:30am 15.0 14.5 13.7 92 0.7 ENE 9 13 5 7 1019.8 1019.6 0.0
27/03:00am 14.8 14.2 13.5 92 0.7 ENE 9 11 5 6 1019.8 1019.6 0.0
27/02:30am 14.7 14.4 13.2 91 0.8 ENE 7 9 4 5 1019.9 1019.7 0.0
27/02:07am 15.1 14.9 13.6 91 0.8 ENE 7 9 4 5 1020.0 1019.8 0.0
27/02:00am 15.2 15.0 13.7 91 0.8 ENE 7 9 4 5 1020.1 1019.9 0.0
27/01:38am 14.8 14.7 13.3 91 0.8 ENE 6 7 3 4 1020.2 1020.1 0.0
27/01:30am 15.3 15.2 13.8 91 0.8 ENE 7 7 4 4 1020.3 1020.2 0.0
27/01:00am 15.0 14.8 13.5 91 0.8 E 7 9 4 5 1020.4 1020.3 0.0
27/12:44am 15.0 14.8 13.5 91 0.8 E 7 9 4 5 1020.4 1020.3 0.0
27/12:30am 15.2 15.0 13.6 90 0.9 E 7 7 4 4 1020.5 1020.4 0.0
27/12:00am 15.3 15.3 13.7 90 0.9 E 6 7 3 4 1020.5 1020.4 0.0
 
Date/Time
EDT
Temp
°C
App
Temp
°C
Dew
Point
°C
Rel
Hum
%
Delta-T
°C
Wind Press
QNH
hPa
Press
MSL
hPa
Rain since
9am
mm
Dir  Spd
km/h
Gust
km/h
Spd
kts
Gust
kts
26/11:55pm 15.4 15.5 13.8 90 0.9 E 6 7 3 4 1020.6 1020.5 0.0
26/11:30pm 15.1 14.8 13.3 89 1.0 E 7 9 4 5 1020.6 1020.5 0.0
26/11:00pm 15.0 14.7 13.2 89 1.0 E 7 9 4 5 1020.7 1020.6 0.0
26/10:30pm 15.0 14.6 13.0 88 1.1 E 7 9 4 5 1020.7 1020.6 0.0
26/10:00pm 15.5 15.2 13.3 87 1.2 ESE 7 9 4 5 1020.6 1020.5 0.0
26/09:30pm 15.8 15.1 13.3 85 1.4 E 9 13 5 7 1020.5 1020.4 0.0
26/09:00pm 16.2 15.8 13.1 82 1.7 ESE 7 9 4 5 1020.3 1020.2 0.0
26/08:30pm 17.3 17.0 13.2 77 2.3 ESE 7 11 4 6 1020.0 1019.8 0.0
26/08:00pm 18.8 18.2 13.4 71 3.1 ESE 9 13 5 7 1019.8 1019.6 0.0
26/07:30pm 19.7 17.2 13.4 67 3.6 SE 19 22 10 12 1019.7 1019.5 0.0
26/07:00pm 20.4 19.1 13.6 65 3.9 ESE 13 19 7 10 1019.6 1019.4 0.0
26/06:30pm 20.5 17.9 13.2 63 4.2 SE 19 22 10 12 1019.4 1019.2 0.0
26/06:00pm 21.3 18.9 13.7 62 4.4 SE 19 24 10 13 1019.2 1019.0 0.0
26/05:30pm 21.4 18.8 13.1 59 4.8 SE 19 26 10 14 1019.2 1019.0 0.0
26/05:00pm 21.7 19.6 13.6 60 4.7 SE 17 24 9 13 1019.1 1018.9 0.0
26/04:30pm 21.5 19.3 13.2 59 4.8 SE 17 24 9 13 1019.1 1018.9 0.0
26/04:00pm 22.1 20.0 13.7 59 4.9 SSE 17 24 9 13 1019.4 1019.2 0.0
26/03:30pm 22.8 21.4 14.4 59 5.0 ESE 15 22 8 12 1019.5 1019.3 0.0
26/03:00pm 22.6 20.9 13.7 57 5.2 ESE 15 22 8 12 1019.8 1019.6 0.0
26/02:30pm 22.3 20.9 12.3 53 5.7 E 11 19 6 10 1020.1 1019.9 0.0
26/02:00pm 22.4 20.7 13.5 57 5.2 ENE 15 20 8 11 1020.3 1020.2 0.0
26/01:30pm 21.9 20.3 12.7 56 5.3 ESE 13 22 7 12 1020.5 1020.4 0.0
26/01:00pm 21.0 18.9 12.4 58 4.8 ESE 15 20 8 11 1020.9 1020.8 0.0
26/12:30pm 20.8 19.0 12.2 58 4.8 ESE 13 22 7 12 1021.3 1021.2 0.0
26/12:00pm 20.4 17.9 12.4 60 4.5 ESE 17 32 9 17 1021.5 1021.4 0.0
26/11:30am 19.3 16.9 12.6 65 3.8 E 17 26 9 14 1021.8 1021.7 0.0
26/11:00am 18.8 16.3 12.3 66 3.6 E 17 26 9 14 1022.0 1021.9 0.0
26/10:30am 19.4 16.9 12.4 64 3.9 E 17 28 9 15 1022.0 1021.9 0.0
26/10:00am 19.0 16.9 12.3 65 3.7 E 15 28 8 15 1022.1 1022.0 0.0
26/09:30am 18.7 16.9 14.4 76 2.5 E 17 28 9 15 1021.9 1021.8 0.0
26/09:00am 17.4 16.5 14.9 85 1.4 E 13 19 7 10 1021.8 1021.7 0.0
26/08:30am 16.5 15.5 14.7 89 1.0 E 13 19 7 10 1021.9 1021.8 0.0
26/08:00am 16.0 15.7 14.4 90 0.9 ESE 9 15 5 8 1021.9 1021.8 0.0
26/07:49am 15.6 15.2 14.0 90 0.9 ESE 9 15 5 8 1021.8 1021.7 0.0
26/07:30am 15.0 14.3 13.2 89 1.0 E 9 13 5 7 1021.9 1021.8 0.0
26/07:00am 15.3 13.9 13.5 89 1.0 E 13 17 7 9 1021.6 1021.5 0.0
26/06:30am 15.8 14.6 14.0 89 1.0 ESE 13 19 7 10 1021.5 1021.4 0.0
26/06:00am 15.5 14.1 13.5 88 1.1 ESE 13 20 7 11 1021.4 1021.3 0.0
26/05:52am 15.5 14.1 13.5 88 1.1 ESE 13 19 7 10 1021.3 1021.2 0.0
26/05:46am 15.5 13.8 13.5 88 1.1 SE 15 20 8 11 1021.4 1021.3 0.0
26/05:30am 15.4 14.1 13.6 89 1.0 ESE 13 20 7 11 1021.4 1021.3 0.0
26/05:00am 14.9 13.3 12.9 88 1.1 SE 13 19 7 10 1021.4 1021.3 0.0
26/04:30am 14.7 13.5 12.7 88 1.1 SE 11 15 6 8 1021.7 1021.6 0.0
26/04:00am 14.3 13.3 12.2 87 1.1 SE 9 13 5 7 1021.8 1021.7 0.0
26/03:50am 14.4 12.7 12.3 87 1.1 SE 13 17 7 9 1021.8 1021.7 0.0
26/03:44am 14.4 12.7 12.3 87 1.1 SE 13 17 7 9 1021.8 1021.7 0.0
26/03:30am 14.6 12.5 12.3 86 1.3 SE 15 19 8 10 1021.8 1021.7 0.0
26/03:18am 14.7 12.6 12.4 86 1.3 SE 15 20 8 11 1022.0 1021.9 0.0
26/03:00am 14.6 12.1 12.3 86 1.3 SE 17 20 9 11 1022.1 1022.0 0.0
26/02:30am 14.6 12.4 12.1 85 1.4 ESE 15 22 8 12 1022.4 1022.3 0.0
26/02:00am 14.7 12.5 12.2 85 1.4 SE 15 24 8 13 1023.0 1022.9 0.0
26/01:30am 14.3 12.0 11.6 84 1.5 SE 15 20 8 11 1023.3 1023.2 0.0
26/01:00am 14.5 11.7 11.5 82 1.6 SE 17 24 9 13 1023.4 1023.3 0.0
26/12:30am 14.5 11.6 11.1 80 1.8 SE 17 26 9 14 1023.8 1023.7 0.0
26/12:00am 14.3 11.4 10.9 80 1.8 SE 17 24 9 13 1024.2 1024.1 0.0
 
Date/Time
EDT
Temp
°C
App
Temp
°C
Dew
Point
°C
Rel
Hum
%
Delta-T
°C
Wind Press
QNH
hPa
Press
MSL
hPa
Rain since
9am
mm
Dir  Spd
km/h
Gust
km/h
Spd
kts
Gust
kts
25/11:30pm 14.4 11.4 10.6 78 2.0 SE 17 22 9 12 1024.4 1024.3 0.0
25/11:00pm 14.8 11.7 10.4 75 2.3 SSE 17 24 9 13 1024.9 1024.8 0.0
25/10:30pm 14.6 11.4 9.8 73 2.5 SSE 17 26 9 14 1024.9 1024.8 0.0
25/10:00pm 14.4 11.4 9.2 71 2.7 SSE 15 24 8 13 1025.2 1025.0 0.0
25/09:30pm 14.3 10.8 8.9 70 2.7 SSE 17 22 9 12 1025.0 1024.9 0.0
25/09:00pm 14.2 10.2 8.4 68 2.9 SE 19 24 10 13 1025.0 1024.9 0.0
25/08:30pm 14.2 10.5 7.9 66 3.1 SSE 17 26 9 14 1025.0 1024.9 0.0
25/08:00pm 14.4 10.1 7.9 65 3.2 SE 20 28 11 15 1025.0 1024.9 0.0
25/07:30pm 14.6 10.2 7.4 62 3.6 SE 20 32 11 17 1024.8 1024.7 0.0
25/07:00pm 14.6 10.0 6.4 58 3.9 SE 20 30 11 16 1024.9 1024.8 0.0
25/06:30pm 15.0 10.7 6.8 58 4.0 SE 19 30 10 16 1024.9 1024.8 0.0
25/06:00pm 15.2 10.1 6.2 55 4.3 SE 22 33 12 18 1024.8 1024.7 0.0
25/05:30pm 15.4 10.4 6.4 55 4.4 SE 22 32 12 17 1024.9 1024.8 0.0
25/05:00pm 15.9 10.8 7.7 58 4.1 SE 24 33 13 18 1025.0 1024.9 0.0
25/04:30pm 15.7 11.8 7.2 57 4.2 SE 17 26 9 14 1025.5 1025.3 0.0
25/04:00pm 16.1 12.0 7.8 58 4.2 SSE 19 30 10 16 1025.6 1025.4 0.0
25/03:30pm 16.5 12.1 6.6 52 4.9 SSE 19 28 10 15 1025.8 1025.6 0.0
25/03:00pm 15.8 11.2 5.7 51 4.8 SSE 19 32 10 17 1026.1 1025.9 0.0
25/02:30pm 16.2 11.3 6.9 54 4.6 SSE 22 33 12 18 1026.3 1026.1 0.0

Other Formats:

Comma delimited format used in spreadsheet applications
http://www.bom.gov.au/fwo/IDV60801/IDV60801.94828.axf

JavaScript Object Notation format (JSON) in row-major order
http://www.bom.gov.au/fwo/IDV60801/IDV60801.94828.json